Time;durP1;ratioP1;P1;durP2;ratioP2;P2;SDS_P1;SDS_P2;PMS_P1;PMS_P2;Temp;Humidity;BMP_temperature;BMP_pressure;BME280_temperature;BME280_humidity;BME280_pressure;Samples;Min_cycle;Max_cycle;Signal;HPM_P1;HPM_P2
2021/09/13 00:00:09;;;;;;;;;;;15.80;97.60;;;;;;5064372;28;19919;-80
2021/09/13 00:02:34;;;;;;;;;;;15.80;97.60;;;;;;5063120;28;19956;-79
2021/09/13 00:04:59;;;;;;;;;;;15.70;97.60;;;;;;5046867;28;19968;-80
2021/09/13 00:07:25;;;;;;;;;;;15.70;97.60;;;;;;5055674;28;19919;-80
2021/09/13 00:09:51;;;;;;;;;;;15.70;97.60;;;;;;5066671;28;20510;-80
2021/09/13 00:12:17;;;;;;;;;;;15.70;97.70;;;;;;5067176;28;19966;-80
2021/09/13 00:14:42;;;;;;;;;;;15.70;97.80;;;;;;5066586;28;19916;-80
2021/09/13 00:17:08;;;;;;;;;;;15.60;97.70;;;;;;5124014;22;19958;-73
2021/09/13 00:19:33;;;;;;;;;;;15.60;97.80;;;;;;5050602;28;20299;-73
2021/09/13 00:21:58;;;;;;;;;;;15.60;97.80;;;;;;5067673;28;19995;-73
2021/09/13 00:24:24;;;;;;;;;;;15.50;97.80;;;;;;5069342;28;19917;-73
2021/09/13 00:26:50;;;;;;;;;;;15.50;98.00;;;;;;5071291;28;19913;-73
2021/09/13 00:29:15;;;;;;;;;;;15.50;98.00;;;;;;5060109;28;19967;-73
2021/09/13 00:31:41;;;;;;;;;;;15.50;98.00;;;;;;5055253;28;19917;-73
2021/09/13 00:34:06;;;;;;;;;;;15.50;98.20;;;;;;5059964;28;19920;-73
2021/09/13 00:36:31;;;;;;;;;;;15.50;98.10;;;;;;5057879;28;20341;-73
2021/09/13 00:38:57;;;;;;;;;;;15.40;98.10;;;;;;5059411;28;19920;-73
2021/09/13 00:41:22;;;;;;;;;;;15.40;98.20;;;;;;5042993;28;20375;-73
2021/09/13 00:43:48;;;;;;;;;;;15.40;98.20;;;;;;5058529;28;19923;-73
2021/09/13 00:46:13;;;;;;;;;;;15.40;98.20;;;;;;5061825;28;19916;-73
2021/09/13 00:48:39;;;;;;;;;;;15.30;98.20;;;;;;5061452;28;20457;-73
2021/09/13 00:51:04;;;;;;;;;;;15.30;98.20;;;;;;5061887;28;20375;-73
2021/09/13 00:53:31;;;;;;;;;;;15.30;98.30;;;;;;5060306;28;19912;-73
2021/09/13 00:55:57;;;;;;;;;;;15.20;98.40;;;;;;5060802;28;20003;-73
2021/09/13 00:58:24;;;;;;;;;;;15.20;98.40;;;;;;5061094;28;20036;-73
2021/09/13 01:00:49;;;;;;;;;;;15.20;98.50;;;;;;5061092;28;19909;-73
2021/09/13 01:03:15;;;;;;;;;;;15.20;98.60;;;;;;5061357;28;20398;-72
2021/09/13 01:05:40;;;;;;;;;;;15.20;98.60;;;;;;5060812;28;19924;-69
2021/09/13 01:08:06;;;;;;;;;;;15.20;98.60;;;;;;5059887;28;19924;-69
2021/09/13 01:10:31;;;;;;;;;;;15.10;98.60;;;;;;5061488;28;20063;-73
2021/09/13 01:12:57;;;;;;;;;;;15.10;98.60;;;;;;5060839;28;20397;-72
2021/09/13 01:15:22;;;;;;;;;;;15.10;98.70;;;;;;5042296;28;19917;-68
2021/09/13 01:17:48;;;;;;;;;;;15.00;98.70;;;;;;5060870;28;19920;-68
2021/09/13 01:20:13;;;;;;;;;;;15.00;98.70;;;;;;5043216;28;19916;-68
2021/09/13 01:22:40;;;;;;;;;;;15.00;98.80;;;;;;5060506;28;19913;-68
2021/09/13 01:25:06;;;;;;;;;;;15.00;98.90;;;;;;5058475;28;19923;-68
2021/09/13 01:27:31;;;;;;;;;;;15.00;98.90;;;;;;5060835;28;19916;-68
2021/09/13 01:29:57;;;;;;;;;;;15.00;98.90;;;;;;5059357;28;19909;-68
2021/09/13 01:32:23;;;;;;;;;;;15.00;98.90;;;;;;5060726;28;20338;-68
2021/09/13 01:34:48;;;;;;;;;;;15.10;99.00;;;;;;5060146;28;19974;-68
2021/09/13 01:37:14;;;;;;;;;;;15.10;98.90;;;;;;5060825;28;19913;-68
2021/09/13 01:39:39;;;;;;;;;;;15.10;98.90;;;;;;5058609;28;19979;-68
2021/09/13 01:42:04;;;;;;;;;;;15.20;98.90;;;;;;5041854;28;19935;-68
2021/09/13 01:44:30;;;;;;;;;;;15.20;98.90;;;;;;5041827;28;19913;-68
2021/09/13 01:46:56;;;;;;;;;;;15.20;98.90;;;;;;5060599;28;19913;-68
2021/09/13 01:49:21;;;;;;;;;;;15.20;98.90;;;;;;5061051;28;19915;-68
2021/09/13 01:51:47;;;;;;;;;;;15.20;98.90;;;;;;5060933;28;19948;-68
2021/09/13 01:54:13;;;;;;;;;;;15.20;98.90;;;;;;5057518;28;19920;-68
2021/09/13 01:56:38;;;;;;;;;;;15.30;98.90;;;;;;5060542;28;20040;-68
2021/09/13 01:59:04;;;;;;;;;;;15.30;98.90;;;;;;5058134;28;20003;-68
2021/09/13 02:01:30;;;;;;;;;;;15.40;98.90;;;;;;5059089;28;19969;-69
2021/09/13 02:03:55;;;;;;;;;;;15.40;98.90;;;;;;5057283;28;19916;-73
2021/09/13 02:06:21;;;;;;;;;;;15.40;98.80;;;;;;5061411;28;19920;-73
2021/09/13 02:08:46;;;;;;;;;;;15.40;98.80;;;;;;5059292;28;19935;-73
2021/09/13 02:11:11;;;;;;;;;;;15.40;98.80;;;;;;5059984;28;19917;-73
2021/09/13 02:13:37;;;;;;;;;;;15.40;98.80;;;;;;5058936;28;19939;-73
2021/09/13 02:16:03;;;;;;;;;;;15.50;98.80;;;;;;5058794;28;19917;-73
2021/09/13 02:18:29;;;;;;;;;;;15.50;98.80;;;;;;5057797;28;20019;-74
2021/09/13 02:20:54;;;;;;;;;;;15.50;98.80;;;;;;5060152;28;19959;-73
2021/09/13 02:23:19;;;;;;;;;;;15.50;98.80;;;;;;5059487;28;19913;-73
2021/09/13 02:25:45;;;;;;;;;;;15.50;98.80;;;;;;5059262;28;19967;-73
2021/09/13 02:28:11;;;;;;;;;;;15.50;98.80;;;;;;5059396;28;19917;-73
2021/09/13 02:30:36;;;;;;;;;;;15.50;98.90;;;;;;5059472;28;19913;-73
2021/09/13 02:33:01;;;;;;;;;;;15.50;98.80;;;;;;5059605;28;20023;-73
2021/09/13 02:35:27;;;;;;;;;;;15.50;98.80;;;;;;5057904;28;19913;-73
2021/09/13 02:37:53;;;;;;;;;;;15.50;98.80;;;;;;5057887;28;19912;-73
2021/09/13 02:40:19;;;;;;;;;;;15.40;98.80;;;;;;5059817;28;19908;-73
2021/09/13 02:42:44;;;;;;;;;;;15.40;98.90;;;;;;5060316;28;19918;-73
2021/09/13 02:45:10;;;;;;;;;;;15.40;98.90;;;;;;5058547;28;19912;-73
2021/09/13 02:47:35;;;;;;;;;;;15.30;99.10;;;;;;5060117;28;19913;-73
2021/09/13 02:50:01;;;;;;;;;;;15.30;99.00;;;;;;5059118;28;19940;-73
2021/09/13 02:52:26;;;;;;;;;;;15.30;99.10;;;;;;5060229;28;19955;-73
2021/09/13 02:54:51;;;;;;;;;;;15.30;99.20;;;;;;5041508;28;19916;-73
2021/09/13 02:57:17;;;;;;;;;;;15.20;99.10;;;;;;5060002;28;19913;-73
2021/09/13 02:59:44;;;;;;;;;;;15.20;99.20;;;;;;5058599;28;19920;-73
2021/09/13 03:02:09;;;;;;;;;;;15.20;99.30;;;;;;5058924;28;19954;-73
2021/09/13 03:04:35;;;;;;;;;;;15.10;99.30;;;;;;5040917;28;19956;-73
2021/09/13 03:07:00;;;;;;;;;;;15.20;99.40;;;;;;5058172;28;19948;-73
2021/09/13 03:09:26;;;;;;;;;;;15.10;99.40;;;;;;5059473;28;19943;-73
2021/09/13 03:11:51;;;;;;;;;;;15.10;99.40;;;;;;5059906;28;19913;-73
2021/09/13 03:14:17;;;;;;;;;;;15.10;99.40;;;;;;5059198;28;19912;-73
2021/09/13 03:16:42;;;;;;;;;;;15.10;99.40;;;;;;5059973;28;19920;-73
2021/09/13 03:19:07;;;;;;;;;;;15.10;99.50;;;;;;5040464;28;19939;-73
2021/09/13 03:21:33;;;;;;;;;;;15.10;99.50;;;;;;5059487;28;19944;-73
2021/09/13 03:23:58;;;;;;;;;;;15.10;99.40;;;;;;5057152;28;20011;-73
2021/09/13 03:26:24;;;;;;;;;;;15.10;99.50;;;;;;5057973;28;19908;-73
2021/09/13 03:28:49;;;;;;;;;;;15.10;99.50;;;;;;5024067;28;19913;-73
2021/09/13 03:31:15;;;;;;;;;;;15.10;99.50;;;;;;5060281;28;19962;-73
2021/09/13 03:33:40;;;;;;;;;;;15.10;99.50;;;;;;5058655;28;20359;-73
2021/09/13 03:36:06;;;;;;;;;;;15.10;99.50;;;;;;5057969;28;19990;-69
2021/09/13 03:38:32;;;;;;;;;;;15.10;99.50;;;;;;5056941;28;19924;-69
2021/09/13 03:40:58;;;;;;;;;;;15.00;99.50;;;;;;5057761;28;19912;-69
2021/09/13 03:43:24;;;;;;;;;;;15.00;99.50;;;;;;5058236;28;19908;-70
2021/09/13 03:45:49;;;;;;;;;;;14.90;99.60;;;;;;5057428;28;19938;-69
2021/09/13 03:48:14;;;;;;;;;;;14.90;99.70;;;;;;5058694;28;19909;-69
2021/09/13 03:50:40;;;;;;;;;;;14.90;99.70;;;;;;5058621;28;20004;-69
2021/09/13 03:53:05;;;;;;;;;;;14.80;99.70;;;;;;5056134;28;20365;-69
2021/09/13 03:55:32;;;;;;;;;;;14.80;99.80;;;;;;5057500;28;19919;-69
2021/09/13 03:57:57;;;;;;;;;;;14.80;99.80;;;;;;5058528;28;19935;-69
2021/09/13 04:00:23;;;;;;;;;;;14.80;99.80;;;;;;5058253;28;19909;-69
2021/09/13 04:02:49;;;;;;;;;;;14.70;99.90;;;;;;5035140;28;19948;-69
2021/09/13 04:05:19;;;;;;;;;;;14.70;99.90;;;;;;5056065;28;19959;-69
2021/09/13 04:10:21;;;;;;;;;;;14.60;99.90;;;;;;5052583;28;19913;-69
2021/09/13 04:12:47;;;;;;;;;;;14.60;99.90;;;;;;5036572;28;19921;-69
2021/09/13 04:15:14;;;;;;;;;;;14.60;99.90;;;;;;5055664;28;20284;-69
2021/09/13 04:17:40;;;;;;;;;;;14.50;99.90;;;;;;5057483;28;20011;-70
2021/09/13 04:20:05;;;;;;;;;;;14.50;99.90;;;;;;5058644;28;19928;-70
2021/09/13 04:22:31;;;;;;;;;;;14.50;99.90;;;;;;5056939;28;19990;-69
2021/09/13 04:24:57;;;;;;;;;;;14.50;99.90;;;;;;5054053;28;19939;-70
2021/09/13 04:27:22;;;;;;;;;;;14.50;99.90;;;;;;5057661;28;20343;-69
2021/09/13 04:29:47;;;;;;;;;;;14.40;99.90;;;;;;5055975;28;19912;-70
2021/09/13 04:32:13;;;;;;;;;;;14.40;99.90;;;;;;5057256;28;20027;-70
2021/09/13 04:34:39;;;;;;;;;;;14.40;99.90;;;;;;5053477;28;19921;-69
2021/09/13 04:37:04;;;;;;;;;;;14.30;99.90;;;;;;5057751;28;20015;-69
2021/09/13 04:39:29;;;;;;;;;;;14.30;99.90;;;;;;5038336;28;20380;-70
2021/09/13 04:41:55;;;;;;;;;;;14.30;99.90;;;;;;5057594;28;19909;-69
2021/09/13 04:44:20;;;;;;;;;;;14.30;99.90;;;;;;5052360;28;19916;-68
2021/09/13 04:46:46;;;;;;;;;;;14.20;99.90;;;;;;5051695;28;19997;-69
2021/09/13 04:49:11;;;;;;;;;;;14.20;99.90;;;;;;5044137;28;19917;-70
2021/09/13 04:51:36;;;;;;;;;;;14.20;99.90;;;;;;5053294;28;19923;-70
2021/09/13 04:54:02;;;;;;;;;;;14.20;99.90;;;;;;5051940;28;20429;-69
2021/09/13 04:56:27;;;;;;;;;;;14.20;99.90;;;;;;5055848;28;19951;-69
2021/09/13 04:58:53;;;;;;;;;;;14.20;99.90;;;;;;5056841;28;19921;-69
2021/09/13 05:01:19;;;;;;;;;;;14.20;99.90;;;;;;5053062;28;19922;-70
2021/09/13 05:03:44;;;;;;;;;;;14.20;99.90;;;;;;5053965;28;19916;-69
2021/09/13 05:06:09;;;;;;;;;;;14.20;99.90;;;;;;5059845;28;19912;-69
2021/09/13 05:08:35;;;;;;;;;;;14.20;99.90;;;;;;5059913;28;19913;-69
2021/09/13 05:11:00;;;;;;;;;;;14.20;99.90;;;;;;5058826;28;19916;-69
2021/09/13 05:13:26;;;;;;;;;;;14.30;99.90;;;;;;5058261;28;20390;-69
2021/09/13 05:15:51;;;;;;;;;;;14.30;99.90;;;;;;5054154;28;19916;-69
2021/09/13 05:18:17;;;;;;;;;;;14.30;99.90;;;;;;5058279;28;19916;-69
2021/09/13 05:20:42;;;;;;;;;;;14.30;99.90;;;;;;5056794;28;19916;-70
2021/09/13 05:23:08;;;;;;;;;;;14.30;99.90;;;;;;5057648;28;20347;-70
2021/09/13 05:25:33;;;;;;;;;;;14.30;99.90;;;;;;5059224;28;19920;-68
2021/09/13 05:27:59;;;;;;;;;;;14.40;99.90;;;;;;5040271;28;19908;-70
2021/09/13 05:30:24;;;;;;;;;;;14.40;99.90;;;;;;5059412;28;19913;-69
2021/09/13 05:32:50;;;;;;;;;;;14.40;99.90;;;;;;5057757;28;19924;-70
2021/09/13 05:35:15;;;;;;;;;;;14.50;99.90;;;;;;5059633;28;19936;-69
2021/09/13 05:37:41;;;;;;;;;;;14.50;99.90;;;;;;5058328;28;20021;-70
2021/09/13 05:40:06;;;;;;;;;;;14.50;99.90;;;;;;5059541;28;19959;-71
2021/09/13 05:42:33;;;;;;;;;;;14.60;99.90;;;;;;5057895;28;19913;-71
2021/09/13 05:44:58;;;;;;;;;;;14.60;99.90;;;;;;5059627;28;20011;-71
2021/09/13 05:47:23;;;;;;;;;;;14.60;99.90;;;;;;5059130;28;20320;-71
2021/09/13 05:49:49;;;;;;;;;;;14.70;99.90;;;;;;5056214;28;19913;-71
2021/09/13 05:52:14;;;;;;;;;;;14.70;99.90;;;;;;5025466;28;19917;-71
2021/09/13 05:54:40;;;;;;;;;;;14.70;99.90;;;;;;5057889;28;19935;-71
2021/09/13 05:57:05;;;;;;;;;;;14.70;99.90;;;;;;5059118;28;19916;-71
2021/09/13 05:59:31;;;;;;;;;;;14.80;99.90;;;;;;5058849;28;20361;-71
2021/09/13 06:01:56;;;;;;;;;;;14.80;99.90;;;;;;5060079;28;19985;-71
2021/09/13 06:04:22;;;;;;;;;;;14.80;99.90;;;;;;5058799;28;19913;-71
2021/09/13 06:06:47;;;;;;;;;;;14.90;99.90;;;;;;5055159;28;20405;-71
2021/09/13 06:09:13;;;;;;;;;;;14.90;99.90;;;;;;5057381;28;20445;-70
2021/09/13 06:11:38;;;;;;;;;;;14.90;99.90;;;;;;5059345;28;19974;-70
2021/09/13 06:14:04;;;;;;;;;;;14.90;99.90;;;;;;5059416;28;19942;-70
2021/09/13 06:16:30;;;;;;;;;;;15.00;99.90;;;;;;5059026;28;19995;-70
2021/09/13 06:18:55;;;;;;;;;;;15.00;99.90;;;;;;5090773;22;20027;-74
2021/09/13 06:21:21;;;;;;;;;;;15.00;99.90;;;;;;5058310;28;20720;-75
2021/09/13 06:23:46;;;;;;;;;;;15.10;99.90;;;;;;5034596;28;20306;-75
2021/09/13 06:26:12;;;;;;;;;;;15.10;99.90;;;;;;5063532;28;20003;-75
2021/09/13 06:28:38;;;;;;;;;;;15.10;99.90;;;;;;5036506;28;19921;-75
2021/09/13 06:31:03;;;;;;;;;;;15.20;99.90;;;;;;5053813;28;20253;-74
2021/09/13 06:33:30;;;;;;;;;;;15.20;99.90;;;;;;5055586;28;19967;-74
2021/09/13 06:35:55;;;;;;;;;;;15.30;99.90;;;;;;5037918;28;19920;-74
2021/09/13 06:38:21;;;;;;;;;;;15.30;99.80;;;;;;5055882;28;20382;-73
2021/09/13 06:40:46;;;;;;;;;;;15.40;99.80;;;;;;5058625;28;19923;-75
2021/09/13 06:43:15;;;;;;;;;;;15.40;99.70;;;;;;5059381;28;19920;-75
2021/09/13 06:45:46;;;;;;;;;;;15.50;99.60;;;;;;5056797;28;19924;-74
2021/09/13 06:48:14;;;;;;;;;;;15.50;99.60;;;;;;5057357;28;19917;-75
2021/09/13 06:50:41;;;;;;;;;;;15.60;99.50;;;;;;5057637;28;19917;-75
2021/09/13 06:53:06;;;;;;;;;;;15.60;99.40;;;;;;5057288;28;19920;-77
2021/09/13 06:55:35;;;;;;;;;;;15.60;99.40;;;;;;5057963;28;20283;-75
2021/09/13 06:58:00;;;;;;;;;;;15.60;99.30;;;;;;5038904;28;20659;-76
2021/09/13 07:00:26;;;;;;;;;;;15.60;99.10;;;;;;5039916;28;19917;-74
2021/09/13 07:02:52;;;;;;;;;;;15.60;99.10;;;;;;5054981;28;20008;-74
2021/09/13 07:05:17;;;;;;;;;;;15.60;99.10;;;;;;5056500;28;19913;-74
2021/09/13 07:07:43;;;;;;;;;;;15.60;99.10;;;;;;5054483;28;19973;-74
2021/09/13 07:10:09;;;;;;;;;;;15.70;99.20;;;;;;5056029;28;19923;-75
2021/09/13 07:12:35;;;;;;;;;;;15.70;99.20;;;;;;5022114;28;19923;-73
2021/09/13 07:15:01;;;;;;;;;;;15.80;99.10;;;;;;5053653;28;19917;-73
2021/09/13 07:17:26;;;;;;;;;;;15.80;99.10;;;;;;5056313;28;20030;-74
2021/09/13 07:19:52;;;;;;;;;;;15.80;99.10;;;;;;5040338;28;19960;-74
2021/09/13 07:22:18;;;;;;;;;;;15.90;99.10;;;;;;5040094;28;20389;-73
2021/09/13 07:24:44;;;;;;;;;;;16.00;99.10;;;;;;5055287;28;19921;-73
2021/09/13 07:27:10;;;;;;;;;;;16.10;99.00;;;;;;5056252;28;19916;-72
2021/09/13 07:29:35;;;;;;;;;;;16.10;98.70;;;;;;5056936;28;20386;-72
2021/09/13 07:32:02;;;;;;;;;;;16.20;98.70;;;;;;5036569;28;19912;-72
2021/09/13 07:34:28;;;;;;;;;;;16.20;98.70;;;;;;5056026;28;19920;-72
2021/09/13 07:36:55;;;;;;;;;;;16.20;98.70;;;;;;5052148;28;19916;-72
2021/09/13 07:39:21;;;;;;;;;;;16.10;98.70;;;;;;5056814;28;19921;-72
2021/09/13 07:41:46;;;;;;;;;;;16.10;98.80;;;;;;5056531;28;19916;-73
2021/09/13 07:44:12;;;;;;;;;;;16.20;98.80;;;;;;5037706;28;19932;-72
2021/09/13 07:46:37;;;;;;;;;;;16.20;98.80;;;;;;5057824;28;19983;-72
2021/09/13 07:49:03;;;;;;;;;;;16.30;98.80;;;;;;5052040;28;19916;-72
2021/09/13 07:51:28;;;;;;;;;;;16.30;98.60;;;;;;5055968;28;19966;-72
2021/09/13 07:53:54;;;;;;;;;;;16.30;98.70;;;;;;5053086;28;19916;-75
2021/09/13 07:56:19;;;;;;;;;;;16.30;98.60;;;;;;5057556;28;19923;-75
2021/09/13 07:58:45;;;;;;;;;;;16.40;98.60;;;;;;5056800;28;19928;-75
2021/09/13 08:01:11;;;;;;;;;;;16.40;98.60;;;;;;5054840;28;19916;-74
2021/09/13 08:03:36;;;;;;;;;;;16.40;98.70;;;;;;5055467;28;20193;-75
2021/09/13 08:06:01;;;;;;;;;;;16.40;98.80;;;;;;5036668;28;19974;-75
2021/09/13 08:08:27;;;;;;;;;;;16.40;98.70;;;;;;5054070;28;20252;-73
2021/09/13 08:10:52;;;;;;;;;;;16.40;98.70;;;;;;5038460;28;19923;-74
2021/09/13 08:13:18;;;;;;;;;;;16.40;98.70;;;;;;5056571;28;19912;-74
2021/09/13 08:15:43;;;;;;;;;;;16.50;98.70;;;;;;5060510;28;19920;-75
2021/09/13 08:18:09;;;;;;;;;;;16.40;98.70;;;;;;5040820;28;20393;-75
2021/09/13 08:20:34;;;;;;;;;;;16.40;98.80;;;;;;5045594;28;19916;-74
2021/09/13 08:23:00;;;;;;;;;;;16.40;98.80;;;;;;5059739;28;19919;-74
2021/09/13 08:25:25;;;;;;;;;;;16.40;98.80;;;;;;5055802;28;19967;-72
2021/09/13 08:27:51;;;;;;;;;;;16.50;98.90;;;;;;5035866;28;19921;-73
2021/09/13 08:30:16;;;;;;;;;;;16.50;98.90;;;;;;5038907;28;19913;-76
2021/09/13 08:32:41;;;;;;;;;;;16.60;98.80;;;;;;5039624;28;19920;-72
2021/09/13 08:35:07;;;;;;;;;;;16.70;98.80;;;;;;5056018;28;19909;-73
2021/09/13 08:37:32;;;;;;;;;;;16.80;98.70;;;;;;5055899;28;19917;-73
2021/09/13 08:39:59;;;;;;;;;;;16.90;98.60;;;;;;5041514;28;19913;-73
2021/09/13 08:42:24;;;;;;;;;;;17.00;98.50;;;;;;5058306;28;19912;-72
2021/09/13 08:44:52;;;;;;;;;;;17.10;98.40;;;;;;5057814;28;19912;-74
2021/09/13 08:47:23;;;;;;;;;;;17.20;98.20;;;;;;5061100;28;19913;-74
2021/09/13 08:49:51;;;;;;;;;;;17.40;98.30;;;;;;5059440;28;19971;-74
2021/09/13 08:52:16;;;;;;;;;;;17.50;98.00;;;;;;5060318;28;19963;-74
2021/09/13 08:54:42;;;;;;;;;;;17.60;97.80;;;;;;5057576;28;19924;-73
2021/09/13 08:57:08;;;;;;;;;;;17.80;97.60;;;;;;5061018;28;19917;-73
2021/09/13 08:59:34;;;;;;;;;;;18.00;97.60;;;;;;5057577;28;19920;-73
2021/09/13 09:02:00;;;;;;;;;;;18.00;97.10;;;;;;5039941;28;19951;-74
2021/09/13 09:04:26;;;;;;;;;;;18.10;97.00;;;;;;5056473;28;20281;-74
2021/09/13 09:06:51;;;;;;;;;;;18.10;96.90;;;;;;5060804;28;19928;-73
2021/09/13 09:09:18;;;;;;;;;;;18.10;96.70;;;;;;5058638;28;20286;-73
2021/09/13 09:11:56;;;;;;;;;;;18.10;96.90;;;;;;5041613;28;20046;-74
2021/09/13 09:14:26;;;;;;;;;;;18.10;96.80;;;;;;5059827;28;20003;-72
2021/09/13 09:16:59;;;;;;;;;;;18.00;96.80;;;;;;5039441;28;19921;-73
2021/09/13 09:19:26;;;;;;;;;;;18.00;96.80;;;;;;5025543;28;20187;-72
2021/09/13 09:21:52;;;;;;;;;;;18.00;96.90;;;;;;5060025;28;19916;-75
2021/09/13 09:24:18;;;;;;;;;;;18.00;97.00;;;;;;5038765;28;19912;-72
2021/09/13 09:27:01;;;;;;;;;;;18.00;96.90;;;;;;5058580;28;19986;-72
2021/09/13 09:29:27;;;;;;;;;;;18.00;96.80;;;;;;5057001;28;20404;-73
2021/09/13 09:31:54;;;;;;;;;;;18.10;96.90;;;;;;5055311;28;20011;-73
2021/09/13 09:34:20;;;;;;;;;;;18.00;97.00;;;;;;5057063;28;19913;-74
2021/09/13 09:36:58;;;;;;;;;;;18.10;96.60;;;;;;5061331;28;20440;-74
2021/09/13 09:39:30;;;;;;;;;;;18.00;96.70;;;;;;5059056;28;20325;-74
2021/09/13 09:41:57;;;;;;;;;;;18.10;96.60;;;;;;5057581;28;19957;-74
2021/09/13 09:44:22;;;;;;;;;;;18.00;96.80;;;;;;5056812;28;19921;-74
2021/09/13 09:46:48;;;;;;;;;;;18.00;96.80;;;;;;5055926;28;19942;-74
2021/09/13 09:49:18;;;;;;;;;;;18.10;96.70;;;;;;5053725;28;19944;-72
2021/09/13 09:51:45;;;;;;;;;;;18.10;96.60;;;;;;5057386;28;19917;-71
2021/09/13 09:54:11;;;;;;;;;;;18.00;96.60;;;;;;5056552;28;19931;-72
2021/09/13 09:56:37;;;;;;;;;;;17.90;96.80;;;;;;5060178;28;19924;-72
2021/09/13 09:59:06;;;;;;;;;;;17.70;97.00;;;;;;5057462;28;19917;-72
2021/09/13 10:01:33;;;;;;;;;;;17.70;97.30;;;;;;5058309;28;20228;-71
2021/09/13 10:04:15;;;;;;;;;;;17.70;97.20;;;;;;5055305;28;20331;-75
2021/09/13 10:06:44;;;;;;;;;;;17.70;97.20;;;;;;5037404;28;19917;-75
2021/09/13 10:09:11;;;;;;;;;;;17.60;97.20;;;;;;5041220;28;19951;-75
2021/09/13 10:11:40;;;;;;;;;;;17.60;97.30;;;;;;5056879;28;19999;-73
2021/09/13 10:14:07;;;;;;;;;;;17.60;97.40;;;;;;5055998;28;19913;-72
2021/09/13 10:16:32;;;;;;;;;;;17.80;97.40;;;;;;5060244;28;19908;-72
2021/09/13 10:18:58;;;;;;;;;;;17.90;97.40;;;;;;5059788;28;19934;-72
2021/09/13 10:21:23;;;;;;;;;;;18.10;97.00;;;;;;5059993;28;19908;-72
2021/09/13 10:23:49;;;;;;;;;;;18.20;96.60;;;;;;5057548;28;20346;-73
2021/09/13 10:26:15;;;;;;;;;;;18.20;96.60;;;;;;5059180;28;19921;-73
2021/09/13 10:28:59;;;;;;;;;;;18.20;96.60;;;;;;5059517;28;19912;-73
2021/09/13 10:31:43;;;;;;;;;;;18.20;96.50;;;;;;5059915;28;19909;-73
2021/09/13 10:34:21;;;;;;;;;;;18.20;96.50;;;;;;5058970;28;20274;-73
2021/09/13 10:36:59;;;;;;;;;;;18.20;96.60;;;;;;5057941;28;19974;-73
2021/09/13 10:39:44;;;;;;;;;;;18.30;96.60;;;;;;5058552;28;20382;-74
2021/09/13 10:42:10;;;;;;;;;;;18.40;96.40;;;;;;5054223;28;19920;-75
2021/09/13 10:44:36;;;;;;;;;;;18.40;96.30;;;;;;5056175;28;19977;-75
2021/09/13 10:47:03;;;;;;;;;;;18.40;96.40;;;;;;5059515;28;20270;-78
2021/09/13 10:49:28;;;;;;;;;;;18.50;96.50;;;;;;5057702;28;19917;-75
2021/09/13 10:52:12;;;;;;;;;;;18.60;96.50;;;;;;5040619;28;19925;-75
2021/09/13 10:54:56;;;;;;;;;;;18.70;96.30;;;;;;5056689;28;20370;-74
2021/09/13 10:57:42;;;;;;;;;;;18.80;96.10;;;;;;5058152;28;19952;-75
2021/09/13 11:00:07;;;;;;;;;;;18.80;96.10;;;;;;5056354;28;19942;-76
2021/09/13 11:02:33;;;;;;;;;;;18.90;95.90;;;;;;5057142;28;20195;-75
2021/09/13 11:05:34;;;;;;;;;;;18.90;95.70;;;;;;5056997;28;19986;-74
2021/09/13 11:08:18;;;;;;;;;;;18.90;95.60;;;;;;4999988;28;19913;-75
2021/09/13 11:10:43;;;;;;;;;;;19.00;95.70;;;;;;5050891;28;20015;-76
2021/09/13 11:13:09;;;;;;;;;;;19.10;95.40;;;;;;5057320;28;20410;-77
2021/09/13 11:15:34;;;;;;;;;;;19.20;95.40;;;;;;5039625;28;19917;-74
2021/09/13 11:18:00;;;;;;;;;;;19.30;95.10;;;;;;5033320;28;19920;-78
2021/09/13 11:20:28;;;;;;;;;;;19.30;94.80;;;;;;5056117;28;19917;-78
2021/09/13 11:22:53;;;;;;;;;;;19.30;95.00;;;;;;5040521;28;20349;-76
2021/09/13 11:25:19;;;;;;;;;;;19.30;94.80;;;;;;5038211;28;20006;-80
2021/09/13 11:27:57;;;;;;;;;;;19.40;94.80;;;;;;5040288;28;19943;-78
2021/09/13 11:30:39;;;;;;;;;;;19.50;94.40;;;;;;5040293;28;19919;-75
2021/09/13 11:33:04;;;;;;;;;;;19.60;94.40;;;;;;5056363;28;20282;-72
2021/09/13 11:35:30;;;;;;;;;;;19.60;94.00;;;;;;5053614;28;19912;-76
2021/09/13 11:37:59;;;;;;;;;;;19.60;94.10;;;;;;5038247;28;19923;-77
2021/09/13 11:40:25;;;;;;;;;;;19.70;93.80;;;;;;5055678;28;20379;-78
2021/09/13 11:42:51;;;;;;;;;;;19.80;93.80;;;;;;5038877;28;19917;-80
2021/09/13 11:45:16;;;;;;;;;;;19.90;93.70;;;;;;5057288;28;19928;-78
2021/09/13 11:47:42;;;;;;;;;;;20.10;93.20;;;;;;5037011;28;20396;-78
2021/09/13 11:50:08;;;;;;;;;;;20.10;93.40;;;;;;5058235;28;19908;-75
2021/09/13 11:52:34;;;;;;;;;;;20.30;93.70;;;;;;5048857;28;19999;-75
2021/09/13 11:55:03;;;;;;;;;;;20.40;93.20;;;;;;5052509;28;19913;-74
2021/09/13 11:57:32;;;;;;;;;;;20.40;92.20;;;;;;5038482;28;19920;-74
2021/09/13 11:59:57;;;;;;;;;;;20.40;92.30;;;;;;5055541;28;19923;-76
2021/09/13 12:02:24;;;;;;;;;;;20.20;92.30;;;;;;5056663;28;19913;-75
2021/09/13 12:04:50;;;;;;;;;;;20.10;92.60;;;;;;5051093;28;19970;-75
2021/09/13 12:07:16;;;;;;;;;;;20.10;92.40;;;;;;5055059;28;19921;-76
2021/09/13 12:09:42;;;;;;;;;;;20.10;92.10;;;;;;5056947;28;19917;-75
2021/09/13 12:12:11;;;;;;;;;;;20.00;92.50;;;;;;5056892;28;20007;-75
2021/09/13 12:14:38;;;;;;;;;;;20.00;92.70;;;;;;5054387;28;20102;-75
2021/09/13 12:17:05;;;;;;;;;;;20.00;92.50;;;;;;5057110;28;19959;-78
2021/09/13 12:19:30;;;;;;;;;;;20.00;92.50;;;;;;5091590;22;20335;-69
2021/09/13 12:22:00;;;;;;;;;;;20.10;92.60;;;;;;5081199;28;19916;-69
2021/09/13 12:24:26;;;;;;;;;;;20.10;92.00;;;;;;5084689;28;19916;-69
2021/09/13 12:26:51;;;;;;;;;;;20.10;91.70;;;;;;5083638;28;19916;-70
2021/09/13 12:29:16;;;;;;;;;;;20.10;92.00;;;;;;5080050;28;20271;-69
2021/09/13 12:31:42;;;;;;;;;;;20.20;91.90;;;;;;5075560;28;19912;-70
2021/09/13 12:34:07;;;;;;;;;;;20.20;91.80;;;;;;5075832;28;19999;-69
2021/09/13 12:36:33;;;;;;;;;;;20.30;91.50;;;;;;5077040;28;19989;-69
2021/09/13 12:38:58;;;;;;;;;;;20.50;91.70;;;;;;5074757;28;20011;-69
2021/09/13 12:41:37;;;;;;;;;;;20.50;91.40;;;;;;5076022;28;20019;-69
2021/09/13 12:44:11;;;;;;;;;;;20.60;91.10;;;;;;5074899;28;19955;-71
2021/09/13 12:46:47;;;;;;;;;;;20.70;91.40;;;;;;5059189;28;19912;-68
2021/09/13 12:49:13;;;;;;;;;;;20.80;90.90;;;;;;5066777;28;19970;-69
2021/09/13 12:51:38;;;;;;;;;;;20.80;91.10;;;;;;5074657;28;19915;-69
2021/09/13 12:54:05;;;;;;;;;;;20.80;91.10;;;;;;5071922;28;19920;-68
2021/09/13 12:56:41;;;;;;;;;;;20.90;91.30;;;;;;5077114;28;20401;-68
2021/09/13 12:59:17;;;;;;;;;;;21.00;90.90;;;;;;5071901;28;19989;-68
2021/09/13 13:01:43;;;;;;;;;;;21.00;90.60;;;;;;5077095;28;20086;-68
2021/09/13 13:04:10;;;;;;;;;;;21.00;90.30;;;;;;5073185;28;20143;-68
2021/09/13 13:06:36;;;;;;;;;;;20.90;90.60;;;;;;5070332;28;19965;-68
2021/09/13 13:09:05;;;;;;;;;;;21.00;90.60;;;;;;5076887;28;19916;-68
2021/09/13 13:11:32;;;;;;;;;;;20.90;90.00;;;;;;5075159;28;19919;-68
2021/09/13 13:13:58;;;;;;;;;;;20.80;89.90;;;;;;5076021;28;19908;-68
2021/09/13 13:16:40;;;;;;;;;;;20.80;89.60;;;;;;5077374;28;19909;-69
2021/09/13 13:19:06;;;;;;;;;;;20.70;90.10;;;;;;5077519;28;19920;-69
2021/09/13 13:21:31;;;;;;;;;;;20.70;87.90;;;;;;5077411;28;20345;-69
2021/09/13 13:23:57;;;;;;;;;;;20.70;88.80;;;;;;5076624;28;19909;-69
2021/09/13 13:26:22;;;;;;;;;;;20.70;89.40;;;;;;5076266;28;19912;-69
2021/09/13 13:28:48;;;;;;;;;;;20.80;89.30;;;;;;5077775;28;19977;-69
2021/09/13 13:31:13;;;;;;;;;;;20.80;90.00;;;;;;5079726;28;20388;-69
2021/09/13 13:33:39;;;;;;;;;;;20.80;89.70;;;;;;5077773;28;19976;-70
2021/09/13 13:36:04;;;;;;;;;;;20.80;89.60;;;;;;5074674;28;19970;-70
2021/09/13 13:38:30;;;;;;;;;;;20.80;90.10;;;;;;5079916;28;20294;-69
2021/09/13 13:40:55;;;;;;;;;;;20.70;87.30;;;;;;5078724;28;19923;-69
2021/09/13 13:43:20;;;;;;;;;;;20.70;88.90;;;;;;5075359;28;20268;-69
2021/09/13 13:45:46;;;;;;;;;;;20.60;89.40;;;;;;5079327;28;19917;-69
2021/09/13 13:48:12;;;;;;;;;;;20.60;89.10;;;;;;5080120;28;19916;-69
2021/09/13 13:50:40;;;;;;;;;;;20.50;88.30;;;;;;5078056;28;19990;-69
2021/09/13 13:53:05;;;;;;;;;;;20.50;88.70;;;;;;5078164;28;19920;-70
2021/09/13 13:55:30;;;;;;;;;;;20.50;88.60;;;;;;5079257;28;20309;-69
2021/09/13 13:57:56;;;;;;;;;;;20.40;88.10;;;;;;5077287;28;20382;-69
2021/09/13 14:00:22;;;;;;;;;;;20.40;87.80;;;;;;5076000;28;19924;-69
2021/09/13 14:02:47;;;;;;;;;;;20.40;87.30;;;;;;5074571;28;19921;-69
2021/09/13 14:05:13;;;;;;;;;;;20.40;86.90;;;;;;5078396;28;20466;-68
2021/09/13 14:07:38;;;;;;;;;;;20.40;87.10;;;;;;5077827;28;20027;-69
2021/09/13 14:10:06;;;;;;;;;;;20.40;87.80;;;;;;5079182;28;19966;-70
2021/09/13 14:12:31;;;;;;;;;;;20.40;88.00;;;;;;5074623;28;19920;-71
2021/09/13 14:14:57;;;;;;;;;;;20.40;87.10;;;;;;5078130;28;20392;-71